Time;durP1;ratioP1;P1;durP2;ratioP2;P2;SDS_P1;SDS_P2;PMS_P1;PMS_P2;Temp;Humidity;BMP_temperature;BMP_pressure;BME280_temperature;BME280_humidity;BME280_pressure;Samples;Min_cycle;Max_cycle;Signal;HPM_P1;HPM_P2
2022/12/20 00:01:20;;;;;;;22.67;11.82;;;;;;;1.80;80.28;93504.03;2070899;69;20175;-73
2022/12/20 00:03:47;;;;;;;21.00;10.40;;;;;;;1.78;79.73;93492.69;2071532;69;20144;-73
2022/12/20 00:06:13;;;;;;;20.40;9.45;;;;;;;1.84;80.63;93489.84;2071051;69;20223;-73
2022/12/20 00:08:46;;;;;;;23.90;11.30;;;;;;;1.66;81.77;93494.22;2071208;69;20183;-72
2022/12/20 00:11:12;;;;;;;19.50;9.85;;;;;;;1.91;80.12;93478.81;2070980;69;20136;-73
2022/12/20 00:13:38;;;;;;;18.13;11.23;;;;;;;1.66;81.50;93472.75;2071066;69;20171;-74
2022/12/20 00:16:12;;;;;;;23.23;11.52;;;;;;;1.71;82.02;93469.13;2070741;69;20183;-74
2022/12/20 00:18:39;;;;;;;17.05;9.40;;;;;;;1.67;81.29;93467.94;2071203;69;20247;-74
2022/12/20 00:21:08;;;;;;;18.17;9.95;;;;;;;1.41;84.15;93477.75;2071048;69;20136;-74
2022/12/20 00:23:35;;;;;;;18.48;9.13;;;;;;;1.71;81.92;93471.88;2071336;69;20152;-72
2022/12/20 00:26:06;;;;;;;17.45;9.13;;;;;;;1.74;81.14;93464.50;2071324;69;20192;-73
2022/12/20 00:28:34;;;;;;;13.63;8.05;;;;;;;1.73;81.97;93471.34;2071309;69;20601;-72
2022/12/20 00:30:59;;;;;;;17.38;8.63;;;;;;;1.80;80.90;93465.16;2064823;69;20269;-74
2022/12/20 00:33:25;;;;;;;16.55;8.70;;;;;;;1.77;79.91;93466.22;2071515;69;20155;-74
2022/12/20 00:35:53;;;;;;;16.10;8.27;;;;;;;1.77;80.64;93477.31;2071714;69;20160;-75
2022/12/20 00:38:18;;;;;;;16.42;7.80;;;;;;;1.83;80.22;93479.97;2071526;69;20136;-75
2022/12/20 00:40:45;;;;;;;13.13;7.45;;;;;;;1.81;80.49;93480.53;2071418;69;20145;-76
2022/12/20 00:43:10;;;;;;;17.33;8.60;;;;;;;1.52;80.99;93480.31;2071289;69;20203;-75
2022/12/20 00:45:36;;;;;;;21.58;9.57;;;;;;;1.36;81.84;93486.91;2071430;69;20144;-74
2022/12/20 00:48:03;;;;;;;20.45;10.45;;;;;;;1.49;82.67;93475.84;2068107;69;20247;-73
2022/12/20 00:50:29;;;;;;;19.45;9.10;;;;;;;1.66;82.07;93477.56;2071537;69;20222;-73
2022/12/20 00:52:54;;;;;;;17.38;9.15;;;;;;;1.70;80.90;93458.56;2071470;69;20124;-73
2022/12/20 00:55:20;;;;;;;17.67;8.45;;;;;;;1.64;81.20;93472.53;2070848;69;20603;-73
2022/12/20 00:57:46;;;;;;;20.42;8.30;;;;;;;1.44;81.61;93485.00;2071350;69;20156;-73
2022/12/20 01:00:12;;;;;;;17.50;8.10;;;;;;;1.52;83.02;93480.31;2071389;69;20499;-74
2022/12/20 01:02:37;;;;;;;17.25;7.80;;;;;;;1.66;82.20;93485.88;2071450;69;20148;-72
2022/12/20 01:05:05;;;;;;;20.95;9.80;;;;;;;1.47;82.70;93480.44;2071563;69;20128;-73
2022/12/20 01:07:31;;;;;;;18.92;9.00;;;;;;;1.60;81.65;93474.13;2068045;69;20155;-72
2022/12/20 01:09:57;;;;;;;18.98;8.80;;;;;;;1.65;80.97;93476.81;2070779;69;20202;-72
2022/12/20 01:12:23;;;;;;;15.95;7.80;;;;;;;1.60;81.27;93485.22;2067975;69;20227;-72
2022/12/20 01:14:48;;;;;;;19.73;8.52;;;;;;;1.38;81.32;93483.63;2071460;69;20507;-74
2022/12/20 01:17:14;;;;;;;20.02;9.43;;;;;;;1.39;82.37;93468.47;2071150;69;20136;-73
2022/12/20 01:19:39;;;;;;;22.00;9.88;;;;;;;1.58;82.10;93468.38;2071010;69;20183;-73
2022/12/20 01:22:06;;;;;;;18.50;9.80;;;;;;;1.60;81.05;93466.53;2071155;69;20143;-73
2022/12/20 01:24:31;;;;;;;17.60;8.23;;;;;;;1.39;82.36;93471.25;2067522;69;20145;-73
2022/12/20 01:26:57;;;;;;;17.60;8.13;;;;;;;1.51;81.81;93475.28;2067828;69;20161;-72
2022/12/20 01:29:22;;;;;;;14.40;7.90;;;;;;;1.59;80.90;93462.28;2071233;69;20579;-73
2022/12/20 01:31:48;;;;;;;18.95;8.25;;;;;;;1.53;80.79;93467.19;2071172;69;20162;-73
2022/12/20 01:34:14;;;;;;;18.23;8.40;;;;;;;1.53;81.00;93462.38;2071214;69;20171;-73
2022/12/20 01:36:39;;;;;;;18.13;8.60;;;;;;;1.55;80.99;93450.00;2071304;69;20492;-73
2022/12/20 01:39:13;;;;;;;17.35;8.48;;;;;;;1.49;80.60;93453.63;2071134;69;20238;-73
2022/12/20 01:41:40;;;;;;;17.63;8.98;;;;;;;1.31;80.97;93448.94;2071130;69;20600;-73
2022/12/20 01:44:25;;;;;;;20.95;9.40;;;;;;;1.40;82.01;93450.53;2071109;69;20160;-73
2022/12/20 01:46:53;;;;;;;15.52;7.90;;;;;;;1.35;81.76;93445.84;2071376;69;20241;-74
2022/12/20 01:49:32;;;;;;;19.13;8.95;;;;;;;1.42;83.01;93459.84;2070736;69;20228;-75
2022/12/20 01:52:05;;;;;;;15.25;7.85;;;;;;;1.55;81.20;93441.69;2071032;69;20549;-75
2022/12/20 01:54:36;;;;;;;13.75;7.10;;;;;;;1.59;80.80;93453.22;2070275;69;20226;-72
2022/12/20 01:57:10;;;;;;;19.02;9.05;;;;;;;1.39;81.15;93449.06;2071103;69;20654;-73
2022/12/20 01:59:42;;;;;;;14.77;8.00;;;;;;;1.48;80.49;93440.31;2070179;69;20156;-72
2022/12/20 02:02:11;;;;;;;16.00;8.50;;;;;;;1.47;80.51;93436.03;2070980;69;20160;-72
2022/12/20 02:04:37;;;;;;;16.00;8.10;;;;;;;1.42;80.50;93429.31;2071390;69;20144;-71
2022/12/20 02:07:05;;;;;;;14.35;7.68;;;;;;;1.51;79.72;93428.88;2070868;69;20152;-72
2022/12/20 02:09:34;;;;;;;14.20;8.18;;;;;;;1.39;80.50;93427.59;2067817;69;20159;-72
2022/12/20 02:12:23;;;;;;;14.75;7.57;;;;;;;1.45;80.37;93422.69;2071228;69;20187;-72
2022/12/20 02:14:55;;;;;;;11.43;6.78;;;;;;;1.45;79.72;93416.38;2071097;69;20168;-73
2022/12/20 02:17:47;;;;;;;15.45;8.20;;;;;;;1.01;80.17;93425.03;2070889;69;20164;-75
2022/12/20 02:20:34;;;;;;;24.60;9.95;;;;;;;0.67;83.23;93426.88;2071000;69;20201;-74
2022/12/20 02:23:45;;;;;;;21.63;9.13;;;;;;;0.97;81.68;93423.84;2070532;69;20205;-74
2022/12/20 02:26:11;;;;;;;16.80;9.27;;;;;;;0.93;80.64;93420.63;2070723;69;20664;-76
2022/12/20 02:28:54;;;;;;;22.25;10.27;;;;;;;0.99;80.78;93422.00;2070858;69;20203;-73
2022/12/20 02:31:30;;;;;;;21.45;8.90;;;;;;;0.91;80.08;93434.25;2070410;69;20152;-72
2022/12/20 02:33:57;;;;;;;20.13;9.68;;;;;;;0.84;80.77;93437.69;2070916;69;20168;-72
2022/12/20 02:36:24;;;;;;;25.55;10.20;;;;;;;0.91;80.49;93431.50;2070663;69;20136;-74
2022/12/20 02:38:52;;;;;;;16.95;8.93;;;;;;;0.93;79.96;93426.91;2067476;69;20152;-73
2022/12/20 02:41:32;;;;;;;19.60;9.65;;;;;;;0.81;81.22;93428.38;2071303;69;20147;-74
2022/12/20 02:46:55;;;;;;;20.45;9.63;;;;;;;0.91;80.22;93431.50;2070697;69;20156;-73
2022/12/20 02:49:26;;;;;;;31.88;9.70;;;;;;;0.67;81.26;93422.06;2071139;69;20224;-73
2022/12/20 02:51:55;;;;;;;24.35;9.45;;;;;;;0.76;81.08;93432.75;2071278;69;20168;-73
2022/12/20 02:54:21;;;;;;;19.50;8.77;;;;;;;0.66;80.13;93417.81;2070632;69;20162;-73
2022/12/20 02:56:55;;;;;;;17.00;8.88;;;;;;;0.80;80.40;93421.34;2071407;69;20213;-73
2022/12/20 02:59:31;;;;;;;14.98;8.10;;;;;;;0.80;80.01;93424.13;2070651;69;20186;-73
2022/12/20 03:01:57;;;;;;;14.43;8.05;;;;;;;0.74;81.71;93415.91;2070791;69;20156;-73
2022/12/20 03:04:27;;;;;;;13.77;7.55;;;;;;;0.83;80.02;93430.66;2071472;69;20168;-73
2022/12/20 03:07:01;;;;;;;47.40;8.88;;;;;;;0.49;81.01;93429.16;2070671;69;20172;-74
2022/12/20 03:09:29;;;;;;;20.67;8.60;;;;;;;0.55;81.68;93428.31;2067558;69;20429;-74
2022/12/20 03:11:55;;;;;;;18.95;8.23;;;;;;;0.57;80.76;93412.66;2070262;69;20259;-74
2022/12/20 03:14:23;;;;;;;21.58;8.40;;;;;;;0.61;79.96;93429.72;2070083;69;20258;-74
2022/12/20 03:16:51;;;;;;;16.50;8.63;;;;;;;0.62;80.53;93436.75;2067405;69;20480;-74
2022/12/20 03:19:17;;;;;;;14.63;8.30;;;;;;;0.43;80.11;93444.38;2070521;69;20167;-75
2022/12/20 03:21:43;;;;;;;18.92;9.95;;;;;;;0.24;81.38;93436.09;2070226;69;20566;-75
2022/12/20 03:24:10;;;;;;;25.48;10.15;;;;;;;0.35;81.33;93427.59;2070913;69;20164;-73
2022/12/20 03:26:36;;;;;;;21.05;9.40;;;;;;;0.40;80.40;93424.00;2070270;69;20168;-76
2022/12/20 03:29:04;;;;;;;17.75;9.50;;;;;;;0.31;80.75;93429.94;2070959;69;20676;-72
2022/12/20 03:31:30;;;;;;;17.40;8.80;;;;;;;0.30;80.25;93422.16;2070850;69;20154;-73
2022/12/20 03:33:55;;;;;;;21.50;9.63;;;;;;;0.46;79.98;93432.25;2070477;69;20163;-73
2022/12/20 03:36:22;;;;;;;20.88;9.75;;;;;;;0.15;79.37;93434.47;2070310;69;20271;-72
2022/12/20 03:38:53;;;;;;;19.92;10.23;;;;;;;0.29;80.35;93420.66;2070167;69;20570;-73
2022/12/20 03:41:21;;;;;;;54.67;10.60;;;;;;;0.06;81.48;93432.06;2070433;69;20160;-73
2022/12/20 03:43:47;;;;;;;18.10;9.48;;;;;;;0.10;80.85;93431.78;2067605;69;20192;-73
2022/12/20 03:46:13;;;;;;;16.98;9.35;;;;;;;0.24;80.27;93425.75;2070284;69;20537;-75
2022/12/20 03:48:39;;;;;;;17.67;9.18;;;;;;;0.34;80.23;93430.91;2070961;69;20614;-74
2022/12/20 03:51:08;;;;;;;17.17;8.40;;;;;;;0.35;79.77;93416.53;2070777;69;20172;-73
2022/12/20 03:53:34;;;;;;;13.85;6.97;;;;;;;0.42;79.90;93409.63;2070259;69;20151;-73
2022/12/20 03:55:59;;;;;;;17.73;7.90;;;;;;;0.29;81.86;93410.34;2070455;69;20147;-73
2022/12/20 03:58:26;;;;;;;12.30;6.78;;;;;;;0.45;80.48;93403.78;2070919;69;20152;-74
2022/12/20 04:00:52;;;;;;;14.23;6.90;;;;;;;0.46;79.81;93399.00;2070908;69;20213;-75
2022/12/20 04:03:37;;;;;;;12.88;6.78;;;;;;;0.28;80.49;93408.84;2071084;69;20563;-73
2022/12/20 04:06:06;;;;;;;14.07;7.53;;;;;;;0.31;79.92;93405.00;2071817;69;20137;-74
2022/12/20 04:08:32;;;;;;;12.35;7.20;;;;;;;0.26;79.44;93405.84;2071739;69;20140;-73
2022/12/20 04:11:16;;;;;;;12.35;7.22;;;;;;;0.35;79.11;93413.00;2071125;69;20144;-72
2022/12/20 04:13:53;;;;;;;15.73;7.70;;;;;;;0.31;78.83;93413.31;2068633;69;20589;-75
2022/12/20 04:16:24;;;;;;;14.95;7.60;;;;;;;0.17;79.37;93425.63;2068516;69;20198;-74
2022/12/20 04:18:50;;;;;;;18.77;7.95;;;;;;;0.12;78.81;93412.59;2068450;69;20156;-73
2022/12/20 04:21:22;;;;;;;18.42;8.05;;;;;;;-0.27;78.68;93402.84;2068293;69;20214;-73
2022/12/20 04:23:48;;;;;;;18.27;9.98;;;;;;;-0.07;79.63;93407.84;2068389;69;20152;-73
2022/12/20 04:26:21;;;;;;;26.17;13.80;;;;;;;0.12;80.11;93409.84;2068340;69;20271;-73
2022/12/20 04:28:50;;;;;;;21.70;10.65;;;;;;;0.05;78.99;93422.28;2067804;69;20163;-72
2022/12/20 04:31:15;;;;;;;17.35;9.27;;;;;;;-0.41;80.90;93421.38;2067867;69;20140;-73
2022/12/20 04:33:47;;;;;;;18.65;9.18;;;;;;;-0.31;81.76;93419.00;2067580;69;20191;-73
2022/12/20 04:36:16;;;;;;;15.75;8.90;;;;;;;-0.18;80.20;93421.84;2067631;69;20157;-73
2022/12/20 04:38:42;;;;;;;18.40;8.88;;;;;;;-0.15;80.16;93414.50;2067724;69;20232;-73
2022/12/20 04:41:08;;;;;;;21.30;9.55;;;;;;;-0.06;78.88;93414.84;2067553;69;20172;-74
2022/12/20 04:43:44;;;;;;;21.98;10.50;;;;;;;-0.18;79.38;93410.00;2067664;69;20152;-74
2022/12/20 04:46:10;;;;;;;32.75;18.55;;;;;;;-0.20;80.50;93402.22;2067641;69;20175;-74
2022/12/20 04:48:35;;;;;;;32.97;18.85;;;;;;;0.00;80.20;93398.19;2068165;69;20598;-74
2022/12/20 04:51:01;;;;;;;19.08;10.85;;;;;;;0.12;79.92;93401.53;2067622;69;20188;-75
2022/12/20 04:56:12;;;;;;;19.83;10.98;;;;;;;0.07;82.16;93411.41;2068027;69;20565;-73
2022/12/20 04:58:38;;;;;;;22.27;10.40;;;;;;;0.10;80.61;93415.91;2064738;69;20182;-74
2022/12/20 05:01:07;;;;;;;15.48;9.82;;;;;;;0.01;79.65;93410.00;2067291;69;20137;-75
2022/12/20 05:03:41;;;;;;;17.77;9.35;;;;;;;-0.04;79.21;93403.28;2067529;69;20148;-73
2022/12/20 05:06:07;;;;;;;19.65;10.00;;;;;;;0.01;79.16;93398.94;2068239;69;20172;-73
2022/12/20 05:08:33;;;;;;;27.55;11.48;;;;;;;-0.23;79.79;93389.41;2067948;69;20238;-73
2022/12/20 05:11:00;;;;;;;28.75;10.50;;;;;;;-0.03;80.08;93388.16;2067501;69;20148;-73
2022/12/20 05:13:27;;;;;;;22.73;10.13;;;;;;;-0.10;80.58;93388.75;2067505;69;20236;-73
2022/12/20 05:15:54;;;;;;;18.42;9.50;;;;;;;0.07;80.19;93380.97;2067950;69;20209;-74
2022/12/20 05:18:25;;;;;;;21.67;9.95;;;;;;;0.19;79.49;93387.81;2067519;69;20577;-74
2022/12/20 05:26:35;;;;;;;57.20;22.98;;;;;;;-0.32;80.40;93418.25;2067620;69;20644;-73
2022/12/20 05:29:01;;;;;;;34.70;16.90;;;;;;;-0.29;80.45;93405.38;2067466;69;20511;-74
2022/12/20 05:31:27;;;;;;;28.73;14.10;;;;;;;-0.10;80.72;93400.56;2067555;69;20615;-74
2022/12/20 05:33:53;;;;;;;29.25;14.02;;;;;;;0.01;79.95;93388.59;2067539;69;20126;-73
2022/12/20 05:36:19;;;;;;;20.17;10.95;;;;;;;0.03;80.69;93383.28;2067204;69;20163;-74
2022/12/20 05:38:47;;;;;;;25.48;11.88;;;;;;;0.09;80.16;93383.19;2064771;69;20251;-75
2022/12/20 05:41:16;;;;;;;24.25;11.05;;;;;;;-0.01;81.10;93382.84;2067577;69;20208;-74
2022/12/20 05:43:45;;;;;;;32.42;11.75;;;;;;;0.10;80.28;93385.44;2064630;69;20140;-73
2022/12/20 05:46:11;;;;;;;23.77;12.13;;;;;;;0.11;79.78;93383.44;2067377;69;20144;-75
2022/12/20 05:48:49;;;;;;;25.73;14.15;;;;;;;0.13;79.91;93387.16;2067543;69;20148;-74
2022/12/20 05:51:15;;;;;;;37.13;20.08;;;;;;;-0.13;80.62;93379.50;2067302;69;20248;-74
2022/12/20 05:53:53;;;;;;;44.45;25.92;;;;;;;-0.14;80.56;93374.47;2067178;69;20164;-74
2022/12/20 05:56:29;;;;;;;51.45;23.77;;;;;;;-0.17;81.42;93381.06;2067281;69;20610;-74
2022/12/20 05:58:55;;;;;;;116.18;41.05;;;;;;;-0.21;80.32;93381.34;2067319;69;20210;-74
2022/12/20 06:01:21;;;;;;;209.85;62.38;;;;;;;-0.11;80.95;93373.41;2067312;69;20164;-73
2022/12/20 06:03:49;;;;;;;292.70;86.93;;;;;;;-0.06;80.43;93378.88;2067301;69;20144;-73
2022/12/20 06:06:17;;;;;;;280.70;88.65;;;;;;;-0.11;80.92;93381.72;2067463;69;20171;-73
2022/12/20 06:08:46;;;;;;;223.55;71.28;;;;;;;-0.05;80.34;93385.16;2067523;69;20563;-75
2022/12/20 06:11:21;;;;;;;107.35;37.90;;;;;;;0.03;79.75;93394.34;2067578;69;20277;-74
2022/12/20 06:13:53;;;;;;;98.20;33.83;;;;;;;-0.05;80.07;93385.16;2067655;69;20191;-75
2022/12/20 06:16:21;;;;;;;169.57;57.13;;;;;;;-0.29;80.90;93388.75;2067447;69;20191;-75
2022/12/20 06:18:48;;;;;;;159.45;55.85;;;;;;;-0.22;80.70;93388.19;2067581;69;20157;-75
2022/12/20 06:21:15;;;;;;;153.77;53.78;;;;;;;-0.18;79.50;93387.84;2067174;69;20140;-75
2022/12/20 06:23:41;;;;;;;146.10;52.38;;;;;;;-0.12;79.15;93388.53;2067451;69;20152;-76
2022/12/20 06:26:10;;;;;;;136.55;49.70;;;;;;;-0.14;79.97;93388.31;2067496;69;20148;-75
2022/12/20 06:28:51;;;;;;;143.88;53.53;;;;;;;-0.08;79.70;93381.44;2067621;69;20198;-75
2022/12/20 06:31:18;;;;;;;146.70;53.47;;;;;;;-0.05;79.16;93368.53;2067583;69;20546;-76
2022/12/20 06:33:47;;;;;;;137.30;52.83;;;;;;;0.00;79.20;93373.28;2067514;69;20148;-77
2022/12/20 06:36:16;;;;;;;127.63;48.53;;;;;;;-0.04;79.82;93373.56;2068124;69;20563;-75
2022/12/20 06:38:42;;;;;;;71.57;32.58;;;;;;;-0.27;81.70;93370.38;2067513;69;20565;-75
2022/12/20 06:41:08;;;;;;;69.00;30.00;;;;;;;-0.03;80.16;93379.84;2064558;69;20609;-76
2022/12/20 06:43:34;;;;;;;83.25;36.65;;;;;;;-0.06;80.51;93370.56;2067405;69;20222;-74
2022/12/20 06:46:01;;;;;;;99.63;42.90;;;;;;;-0.02;80.44;93364.72;2067509;69;20268;-74
2022/12/20 06:48:27;;;;;;;77.80;34.92;;;;;;;-0.01;80.26;93364.19;2067485;69;20139;-77
2022/12/20 06:50:53;;;;;;;51.90;23.15;;;;;;;0.13;79.90;93362.22;2067377;69;20149;-76
2022/12/20 06:53:19;;;;;;;116.43;52.92;;;;;;;-0.09;81.28;93366.09;2067428;69;20145;-75
2022/12/20 06:55:47;;;;;;;100.75;43.33;;;;;;;0.06;81.68;93368.41;2067245;69;20184;-75
2022/12/20 06:58:13;;;;;;;74.53;34.67;;;;;;;0.11;81.36;93369.56;2067419;69;20252;-75
2022/12/20 07:00:38;;;;;;;79.45;34.60;;;;;;;0.12;79.99;93365.53;2067418;69;20153;-75
2022/12/20 07:03:04;;;;;;;81.80;37.65;;;;;;;0.19;80.53;93368.44;2068008;69;20149;-75
2022/12/20 07:05:30;;;;;;;61.53;28.20;;;;;;;0.17;80.13;93373.75;2067926;69;20167;-75
2022/12/20 07:07:55;;;;;;;57.58;28.25;;;;;;;0.05;80.04;93372.44;2064770;69;20543;-75
2022/12/20 07:10:21;;;;;;;60.97;27.45;;;;;;;-0.13;79.49;93373.22;2067806;69;20237;-74
2022/12/20 07:12:46;;;;;;;55.17;26.80;;;;;;;-0.01;79.39;93375.28;2068172;69;20178;-75
2022/12/20 07:15:12;;;;;;;60.10;28.60;;;;;;;-0.08;79.29;93369.63;2067993;69;20141;-75
2022/12/20 07:17:37;;;;;;;59.15;28.58;;;;;;;-0.14;80.39;93371.69;2068070;69;20682;-75
2022/12/20 07:20:04;;;;;;;57.17;28.60;;;;;;;-0.03;79.55;93372.28;2067931;69;20545;-75
2022/12/20 07:22:29;;;;;;;64.30;33.05;;;;;;;-0.07;78.97;93382.91;2067920;69;20289;-73
2022/12/20 07:24:55;;;;;;;60.50;30.45;;;;;;;0.03;79.00;93382.53;2067836;69;20603;-75
2022/12/20 07:27:20;;;;;;;61.65;30.60;;;;;;;0.16;78.86;93379.81;2068020;69;20161;-75
2022/12/20 07:29:46;;;;;;;61.65;31.85;;;;;;;0.16;79.32;93361.19;2065844;69;20148;-74
2022/12/20 07:32:13;;;;;;;72.60;33.28;;;;;;;0.19;79.30;93364.94;2064518;69;20264;-74
2022/12/20 07:34:38;;;;;;;62.53;31.83;;;;;;;0.22;80.03;93364.59;2065089;69;20153;-75
2022/12/20 07:37:04;;;;;;;71.70;36.42;;;;;;;0.33;79.46;93372.00;2064548;69;20144;-74
2022/12/20 07:39:29;;;;;;;77.00;40.20;;;;;;;0.39;80.10;93382.97;2063760;69;20141;-74
2022/12/20 07:41:56;;;;;;;63.20;32.88;;;;;;;0.41;80.33;93391.50;2064525;69;20144;-75
2022/12/20 07:44:22;;;;;;;77.22;40.97;;;;;;;0.33;80.17;93391.38;2064576;69;20191;-74
2022/12/20 07:46:48;;;;;;;64.97;33.92;;;;;;;0.43;80.23;93386.94;2064042;69;20156;-76
2022/12/20 07:49:14;;;;;;;78.22;37.50;;;;;;;0.41;79.47;93385.97;2064571;69;20165;-75
2022/12/20 07:51:47;;;;;;;76.07;38.65;;;;;;;0.37;80.62;93380.00;2064730;69;20136;-73
2022/12/20 07:54:25;;;;;;;67.55;35.30;;;;;;;0.53;80.35;93373.44;2064431;69;20236;-73
2022/12/20 07:56:56;;;;;;;65.68;32.97;;;;;;;0.66;80.18;93384.53;2064667;69;20157;-74
2022/12/20 07:59:32;;;;;;;69.75;36.22;;;;;;;0.27;80.41;93387.94;2064530;69;20184;-74
2022/12/20 08:01:57;;;;;;;64.85;34.88;;;;;;;0.46;80.14;93387.91;2064669;69;20149;-73
2022/12/20 08:04:27;;;;;;;68.97;36.95;;;;;;;0.52;79.76;93380.25;2064600;69;20232;-73
2022/12/20 08:06:56;;;;;;;68.10;37.42;;;;;;;0.70;79.19;93387.00;2064598;69;20266;-73
2022/12/20 08:09:23;;;;;;;58.88;32.22;;;;;;;0.95;80.40;93370.94;2064412;69;20710;-73
2022/12/20 08:11:50;;;;;;;48.97;23.55;;;;;;;1.15;81.03;93366.78;2063982;69;20149;-73
2022/12/20 08:14:17;;;;;;;53.22;25.65;;;;;;;0.77;81.20;93383.59;2064413;69;20165;-74
2022/12/20 08:16:43;;;;;;;73.63;36.00;;;;;;;0.74;80.64;93376.34;2064598;69;20222;-74
2022/12/20 08:19:09;;;;;;;69.88;37.75;;;;;;;0.89;79.73;93365.50;2064559;69;20149;-74
2022/12/20 08:21:35;;;;;;;60.65;32.30;;;;;;;0.88;79.38;93366.03;2064480;69;20602;-75
2022/12/20 08:24:01;;;;;;;51.25;26.20;;;;;;;1.24;79.73;93367.13;2064442;69;20153;-74
2022/12/20 08:26:27;;;;;;;43.50;24.08;;;;;;;1.43;80.68;93369.75;2064500;69;20588;-75
2022/12/20 08:28:54;;;;;;;41.83;23.55;;;;;;;1.60;79.65;93363.84;2066130;69;20163;-76
2022/12/20 08:31:19;;;;;;;61.63;33.05;;;;;;;1.20;80.12;93366.69;2071190;69;20159;-75
2022/12/20 08:33:45;;;;;;;55.83;29.75;;;;;;;1.33;79.76;93365.94;2071088;69;20160;-75
2022/12/20 08:36:12;;;;;;;57.03;30.50;;;;;;;1.59;80.26;93356.06;2071150;69;20148;-74
2022/12/20 08:38:38;;;;;;;54.92;27.67;;;;;;;1.81;79.64;93354.84;2071228;69;20168;-75
2022/12/20 08:41:12;;;;;;;43.38;24.73;;;;;;;2.02;79.92;93358.44;2067685;69;20160;-75
2022/12/20 08:43:39;;;;;;;31.70;18.35;;;;;;;2.11;81.04;93360.75;2071333;69;20257;-75
2022/12/20 08:46:06;;;;;;;33.45;17.58;;;;;;;2.44;80.24;93370.31;2071753;69;20616;-74
2022/12/20 08:48:32;;;;;;;43.53;25.10;;;;;;;1.95;80.16;93378.50;2071658;69;20140;-75
2022/12/20 08:51:04;;;;;;;38.50;22.17;;;;;;;2.23;79.47;93381.41;2071657;69;20171;-75
2022/12/20 08:53:30;;;;;;;37.65;22.20;;;;;;;2.43;80.13;93377.16;2071514;69;20156;-75
2022/12/20 08:56:07;;;;;;;40.03;21.70;;;;;;;2.74;79.07;93369.81;2071556;69;20156;-74
2022/12/20 08:58:34;;;;;;;36.70;20.52;;;;;;;2.71;78.18;93370.19;2071696;69;20159;-75
2022/12/20 09:01:01;;;;;;;46.53;25.17;;;;;;;2.22;78.30;93363.25;2071757;69;20189;-75
2022/12/20 09:03:30;;;;;;;49.45;25.52;;;;;;;2.85;78.51;93368.06;2071643;69;20168;-75
2022/12/20 09:05:57;;;;;;;51.50;25.30;;;;;;;2.94;77.42;93359.97;2071648;69;20129;-74
2022/12/20 09:08:24;;;;;;;40.78;24.55;;;;;;;3.27;77.04;93358.34;2065551;69;20523;-75
2022/12/20 09:10:50;;;;;;;44.75;24.25;;;;;;;3.45;78.00;93350.28;2067924;69;20129;-76
2022/12/20 09:13:16;;;;;;;41.60;24.55;;;;;;;3.44;76.55;93360.66;2071484;69;20155;-79
2022/12/20 09:15:43;;;;;;;42.38;25.50;;;;;;;3.59;76.43;93362.03;2071498;69;20276;-74
2022/12/20 09:18:09;;;;;;;45.15;27.05;;;;;;;3.75;75.38;93369.88;2071510;69;20148;-74
2022/12/20 09:20:40;;;;;;;45.95;26.60;;;;;;;3.96;74.73;93360.69;2071496;69;20140;-75
2022/12/20 09:23:06;;;;;;;43.05;25.45;;;;;;;3.69;74.78;93355.38;2068353;69;20148;-74
2022/12/20 09:25:32;;;;;;;46.60;26.90;;;;;;;3.88;74.53;93348.78;2071370;69;20160;-75
2022/12/20 09:27:58;;;;;;;42.45;25.85;;;;;;;4.14;74.48;93345.69;2068255;69;20168;-74
2022/12/20 09:30:24;;;;;;;46.25;27.42;;;;;;;4.20;74.81;93359.47;2071431;69;20175;-75
2022/12/20 09:32:49;;;;;;;42.17;26.02;;;;;;;4.34;74.90;93358.00;2071488;69;20587;-75
2022/12/20 09:35:15;;;;;;;40.83;25.50;;;;;;;4.53;74.01;93352.81;2071470;69;20534;-76
2022/12/20 09:37:40;;;;;;;46.70;25.98;;;;;;;4.49;73.06;93344.09;2071539;69;20167;-74
2022/12/20 09:40:13;;;;;;;38.80;25.52;;;;;;;4.58;73.42;93349.13;2071430;69;20148;-76
2022/12/20 09:42:39;;;;;;;45.03;26.90;;;;;;;4.60;74.29;93348.56;2071473;69;20180;-75
2022/12/20 09:45:12;;;;;;;45.70;25.83;;;;;;;4.74;73.04;93335.19;2071455;69;20235;-76
2022/12/20 09:47:38;;;;;;;43.47;26.45;;;;;;;4.73;73.26;93331.66;2071542;69;20167;-75
2022/12/20 09:50:15;;;;;;;43.67;27.10;;;;;;;4.59;73.70;93328.31;2071450;69;20255;-75
2022/12/20 09:53:12;;;;;;;41.65;26.13;;;;;;;4.94;73.23;93330.72;2071605;69;20479;-77
2022/12/20 09:55:53;;;;;;;55.10;29.50;;;;;;;4.44;72.74;93341.47;2071334;69;20155;-76
2022/12/20 09:58:29;;;;;;;48.88;27.65;;;;;;;4.68;72.60;93340.22;2071408;69;20171;-76
2022/12/20 10:00:56;;;;;;;41.03;25.73;;;;;;;4.81;72.23;93340.78;2071575;69;20177;-77
2022/12/20 10:03:30;;;;;;;56.30;26.35;;;;;;;4.97;71.64;93337.97;2068094;69;20221;-75
2022/12/20 10:06:03;;;;;;;48.95;24.33;;;;;;;4.97;71.86;93333.13;2068204;69;20143;-76
2022/12/20 10:08:49;;;;;;;44.97;24.67;;;;;;;4.87;72.05;93326.63;2071493;69;20619;-76
2022/12/20 10:11:23;;;;;;;60.13;33.35;;;;;;;5.00;72.06;93312.47;2071522;69;20179;-76
2022/12/20 10:14:04;;;;;;;74.80;41.05;;;;;;;4.59;72.80;93314.34;2071469;69;20140;-75
2022/12/20 10:16:39;;;;;;;71.93;39.95;;;;;;;5.07;72.76;93289.38;2071536;69;20250;-79
2022/12/20 10:19:29;;;;;;;79.25;44.33;;;;;;;5.65;73.82;93284.00;2071409;69;20160;-74
2022/12/20 10:22:13;;;;;;;76.28;42.45;;;;;;;5.57;70.83;93284.03;2071451;69;20144;-75
2022/12/20 10:24:43;;;;;;;77.82;45.15;;;;;;;5.44;71.83;93289.13;2071296;69;20203;-77
2022/12/20 10:27:17;;;;;;;74.00;41.35;;;;;;;5.55;71.17;93272.69;2071642;69;20615;-76
2022/12/20 10:29:44;;;;;;;61.75;33.88;;;;;;;5.77;71.00;93275.94;2071354;69;20635;-74
2022/12/20 10:32:18;;;;;;;59.60;32.28;;;;;;;5.82;70.39;93275.00;2071404;69;20231;-75
2022/12/20 10:34:56;;;;;;;55.15;31.40;;;;;;;5.97;69.58;93271.41;2068028;69;20492;-75
2022/12/20 10:37:21;;;;;;;41.63;24.33;;;;;;;6.07;70.22;93269.50;2071409;69;20167;-75
2022/12/20 10:39:49;;;;;;;42.47;25.42;;;;;;;6.09;69.27;93261.25;2071275;69;20564;-74
2022/12/20 10:42:23;;;;;;;40.40;25.65;;;;;;;5.78;69.97;93261.44;2071426;69;20144;-74
2022/12/20 10:44:49;;;;;;;40.15;24.30;;;;;;;5.77;69.67;93265.53;2068041;69;20147;-75
2022/12/20 10:47:45;;;;;;;44.88;23.42;;;;;;;5.93;69.85;93263.41;2071220;69;20129;-74
2022/12/20 10:50:16;;;;;;;49.88;29.98;;;;;;;6.06;68.98;93262.41;2053899;70;20148;-75
2022/12/20 10:52:44;;;;;;;61.92;33.50;;;;;;;5.94;69.16;93256.50;2053880;70;20185;-75
2022/12/20 10:55:46;;;;;;;56.70;30.77;;;;;;;6.13;69.83;93256.03;2053799;69;20162;-75
2022/12/20 10:58:29;;;;;;;48.67;28.75;;;;;;;6.18;68.83;93248.72;2047224;70;20290;-75
2022/12/20 11:01:10;;;;;;;40.25;23.23;;;;;;;6.25;70.51;93237.50;2047297;70;20158;-75
2022/12/20 11:03:55;;;;;;;46.40;28.15;;;;;;;6.51;69.03;93227.06;2047266;70;20159;-76
2022/12/20 11:06:25;;;;;;;60.30;31.45;;;;;;;6.61;69.25;93222.31;2047161;70;20190;-76
2022/12/20 11:08:51;;;;;;;51.95;30.70;;;;;;;6.45;69.39;93220.94;2047235;70;20239;-76
2022/12/20 11:11:26;;;;;;;63.88;34.92;;;;;;;6.35;69.98;93215.25;2047276;70;20364;-76
2022/12/20 11:13:52;;;;;;;54.65;33.90;;;;;;;6.29;68.94;93209.88;2047332;70;20158;-75
2022/12/20 11:16:29;;;;;;;63.25;39.55;;;;;;;6.58;69.49;93213.00;2047317;70;20150;-75
2022/12/20 11:19:25;;;;;;;76.32;44.13;;;;;;;6.50;69.26;93200.38;2047245;70;20154;-75
2022/12/20 11:22:15;;;;;;;71.95;41.60;;;;;;;6.97;69.48;93195.84;2047313;70;20155;-76
2022/12/20 11:25:14;;;;;;;63.15;37.47;;;;;;;6.73;68.44;93191.78;2047093;70;20165;-76
2022/12/20 11:28:06;;;;;;;58.40;37.10;;;;;;;6.81;69.03;93186.84;2052062;70;20638;-78
2022/12/20 11:30:47;;;;;;;51.22;30.63;;;;;;;6.55;68.69;93191.00;2053812;70;20212;-78
2022/12/20 11:33:42;;;;;;;57.88;34.97;;;;;;;6.57;69.19;93182.81;2070236;69;20270;-78
2022/12/20 11:36:37;;;;;;;56.45;33.90;;;;;;;6.80;69.17;93174.19;2064884;69;20210;-77
2022/12/20 11:39:09;;;;;;;64.18;34.72;;;;;;;6.77;68.76;93167.66;2071110;69;20192;-78
2022/12/20 11:41:50;;;;;;;55.75;33.25;;;;;;;6.60;68.63;93171.22;2071328;69;20136;-78
2022/12/20 11:44:35;;;;;;;58.47;33.72;;;;;;;6.74;69.15;93165.31;2071331;69;20149;-78
2022/12/20 11:47:07;;;;;;;52.88;31.90;;;;;;;6.90;69.12;93163.06;2071546;69;20249;-78
2022/12/20 11:49:44;;;;;;;58.92;35.95;;;;;;;6.95;68.79;93162.81;2071307;69;20247;-78
2022/12/20 11:52:25;;;;;;;57.53;34.97;;;;;;;6.98;68.87;93158.88;2071354;69;20186;-78